sensor_id;sensor_type;location;lat;lon;timestamp;P1;durP1;ratioP1;P2;durP2;ratioP2
31442;SDS011;18065;55.876;9.830;2024-01-10T00:01:16;3.03;;;2.00;;
31442;SDS011;18065;55.876;9.830;2024-01-10T00:03:46;2.22;;;1.70;;
31442;SDS011;18065;55.876;9.830;2024-01-10T00:06:15;3.30;;;1.63;;
31442;SDS011;18065;55.876;9.830;2024-01-10T00:08:46;3.53;;;1.63;;
31442;SDS011;18065;55.876;9.830;2024-01-10T00:11:15;2.67;;;1.92;;
31442;SDS011;18065;55.876;9.830;2024-01-10T00:13:44;2.22;;;1.70;;
31442;SDS011;18065;55.876;9.830;2024-01-10T00:16:13;2.15;;;1.65;;
31442;SDS011;18065;55.876;9.830;2024-01-10T00:18:42;2.28;;;1.60;;
31442;SDS011;18065;55.876;9.830;2024-01-10T00:21:11;1.90;;;1.55;;
31442;SDS011;18065;55.876;9.830;2024-01-10T00:23:40;2.17;;;1.67;;
31442;SDS011;18065;55.876;9.830;2024-01-10T00:26:12;2.78;;;1.90;;
31442;SDS011;18065;55.876;9.830;2024-01-10T00:28:42;2.93;;;1.90;;
31442;SDS011;18065;55.876;9.830;2024-01-10T00:31:11;3.85;;;1.52;;
31442;SDS011;18065;55.876;9.830;2024-01-10T00:33:40;2.42;;;1.73;;
31442;SDS011;18065;55.876;9.830;2024-01-10T00:36:09;3.10;;;2.03;;
31442;SDS011;18065;55.876;9.830;2024-01-10T00:38:38;2.20;;;1.83;;
31442;SDS011;18065;55.876;9.830;2024-01-10T00:41:06;2.55;;;1.70;;
31442;SDS011;18065;55.876;9.830;2024-01-10T00:43:39;2.05;;;1.60;;
31442;SDS011;18065;55.876;9.830;2024-01-10T00:46:08;1.77;;;1.65;;
31442;SDS011;18065;55.876;9.830;2024-01-10T00:48:37;2.53;;;1.70;;
31442;SDS011;18065;55.876;9.830;2024-01-10T00:51:06;2.90;;;1.60;;
31442;SDS011;18065;55.876;9.830;2024-01-10T00:53:35;2.70;;;1.60;;
31442;SDS011;18065;55.876;9.830;2024-01-10T00:56:04;1.80;;;1.50;;
31442;SDS011;18065;55.876;9.830;2024-01-10T00:58:35;2.47;;;1.70;;
31442;SDS011;18065;55.876;9.830;2024-01-10T01:01:06;2.60;;;1.35;;
31442;SDS011;18065;55.876;9.830;2024-01-10T01:03:35;2.33;;;1.60;;
31442;SDS011;18065;55.876;9.830;2024-01-10T01:06:04;2.30;;;1.77;;
31442;SDS011;18065;55.876;9.830;2024-01-10T01:08:33;1.92;;;1.52;;
31442;SDS011;18065;55.876;9.830;2024-01-10T01:11:02;1.63;;;1.48;;
31442;SDS011;18065;55.876;9.830;2024-01-10T01:13:31;2.72;;;1.70;;
31442;SDS011;18065;55.876;9.830;2024-01-10T01:16:00;2.08;;;1.42;;
31442;SDS011;18065;55.876;9.830;2024-01-10T01:18:31;2.35;;;1.48;;
31442;SDS011;18065;55.876;9.830;2024-01-10T01:21:00;1.60;;;1.40;;
31442;SDS011;18065;55.876;9.830;2024-01-10T01:23:29;3.05;;;1.67;;
31442;SDS011;18065;55.876;9.830;2024-01-10T01:25:58;2.15;;;1.50;;
31442;SDS011;18065;55.876;9.830;2024-01-10T01:28:29;2.22;;;1.55;;
31442;SDS011;18065;55.876;9.830;2024-01-10T01:30:58;3.00;;;1.55;;
31442;SDS011;18065;55.876;9.830;2024-01-10T01:33:26;2.15;;;1.48;;
31442;SDS011;18065;55.876;9.830;2024-01-10T01:35:58;2.13;;;1.60;;
31442;SDS011;18065;55.876;9.830;2024-01-10T01:38:27;2.40;;;1.67;;
31442;SDS011;18065;55.876;9.830;2024-01-10T01:40:56;1.85;;;1.30;;
31442;SDS011;18065;55.876;9.830;2024-01-10T01:43:25;3.03;;;1.42;;
31442;SDS011;18065;55.876;9.830;2024-01-10T01:45:54;2.35;;;1.70;;
31442;SDS011;18065;55.876;9.830;2024-01-10T01:48:24;1.83;;;1.38;;
31442;SDS011;18065;55.876;9.830;2024-01-10T01:50:54;2.92;;;1.90;;
31442;SDS011;18065;55.876;9.830;2024-01-10T01:53:30;1.77;;;1.40;;
31442;SDS011;18065;55.876;9.830;2024-01-10T01:56:00;2.08;;;1.55;;
31442;SDS011;18065;55.876;9.830;2024-01-10T01:58:32;2.03;;;1.50;;
31442;SDS011;18065;55.876;9.830;2024-01-10T02:01:03;3.63;;;1.58;;
31442;SDS011;18065;55.876;9.830;2024-01-10T02:03:33;1.98;;;1.38;;
31442;SDS011;18065;55.876;9.830;2024-01-10T02:06:05;1.67;;;1.23;;
31442;SDS011;18065;55.876;9.830;2024-01-10T02:08:34;1.95;;;1.30;;
31442;SDS011;18065;55.876;9.830;2024-01-10T02:11:03;1.98;;;1.33;;
31442;SDS011;18065;55.876;9.830;2024-01-10T02:13:33;2.22;;;1.40;;
31442;SDS011;18065;55.876;9.830;2024-01-10T02:16:03;3.05;;;1.60;;
31442;SDS011;18065;55.876;9.830;2024-01-10T02:18:33;2.03;;;1.27;;
31442;SDS011;18065;55.876;9.830;2024-01-10T02:21:05;2.53;;;1.92;;
31442;SDS011;18065;55.876;9.830;2024-01-10T02:23:34;2.35;;;1.30;;
31442;SDS011;18065;55.876;9.830;2024-01-10T02:26:05;1.33;;;1.08;;
31442;SDS011;18065;55.876;9.830;2024-01-10T02:28:34;2.33;;;1.60;;
31442;SDS011;18065;55.876;9.830;2024-01-10T02:31:03;1.85;;;1.23;;
31442;SDS011;18065;55.876;9.830;2024-01-10T02:33:32;1.88;;;1.38;;
31442;SDS011;18065;55.876;9.830;2024-01-10T02:36:02;1.58;;;1.20;;
31442;SDS011;18065;55.876;9.830;2024-01-10T02:38:32;2.35;;;1.23;;
31442;SDS011;18065;55.876;9.830;2024-01-10T02:41:01;5.38;;;1.50;;
31442;SDS011;18065;55.876;9.830;2024-01-10T02:43:32;1.58;;;1.35;;
31442;SDS011;18065;55.876;9.830;2024-01-10T02:46:01;2.78;;;1.33;;
31442;SDS011;18065;55.876;9.830;2024-01-10T02:48:30;1.85;;;1.20;;
31442;SDS011;18065;55.876;9.830;2024-01-10T02:50:59;2.78;;;1.35;;
31442;SDS011;18065;55.876;9.830;2024-01-10T02:53:27;3.63;;;1.45;;
31442;SDS011;18065;55.876;9.830;2024-01-10T02:55:57;2.40;;;1.50;;
31442;SDS011;18065;55.876;9.830;2024-01-10T02:58:26;1.95;;;1.30;;
31442;SDS011;18065;55.876;9.830;2024-01-10T03:00:58;2.75;;;1.45;;
31442;SDS011;18065;55.876;9.830;2024-01-10T03:03:26;2.28;;;1.20;;
31442;SDS011;18065;55.876;9.830;2024-01-10T03:05:55;1.92;;;1.40;;
31442;SDS011;18065;55.876;9.830;2024-01-10T03:08:24;1.60;;;1.20;;
31442;SDS011;18065;55.876;9.830;2024-01-10T03:10:53;2.03;;;1.20;;
31442;SDS011;18065;55.876;9.830;2024-01-10T03:13:22;1.73;;;1.52;;
31442;SDS011;18065;55.876;9.830;2024-01-10T03:15:51;2.05;;;1.25;;
31442;SDS011;18065;55.876;9.830;2024-01-10T03:18:23;3.05;;;1.40;;
31442;SDS011;18065;55.876;9.830;2024-01-10T03:20:52;1.70;;;1.30;;
31442;SDS011;18065;55.876;9.830;2024-01-10T03:23:21;1.60;;;1.30;;
31442;SDS011;18065;55.876;9.830;2024-01-10T03:25:50;2.33;;;1.50;;
31442;SDS011;18065;55.876;9.830;2024-01-10T03:28:19;2.33;;;1.27;;
31442;SDS011;18065;55.876;9.830;2024-01-10T03:30:47;1.77;;;1.38;;
31442;SDS011;18065;55.876;9.830;2024-01-10T03:33:17;1.63;;;1.30;;
31442;SDS011;18065;55.876;9.830;2024-01-10T03:35:48;1.95;;;1.30;;
31442;SDS011;18065;55.876;9.830;2024-01-10T03:38:15;1.75;;;1.20;;
31442;SDS011;18065;55.876;9.830;2024-01-10T03:40:43;1.25;;;1.10;;
31442;SDS011;18065;55.876;9.830;2024-01-10T03:43:12;1.58;;;1.23;;
31442;SDS011;18065;55.876;9.830;2024-01-10T03:45:42;2.85;;;1.35;;
31442;SDS011;18065;55.876;9.830;2024-01-10T03:48:11;2.42;;;1.38;;
31442;SDS011;18065;55.876;9.830;2024-01-10T03:50:40;1.38;;;1.20;;
31442;SDS011;18065;55.876;9.830;2024-01-10T03:53:11;2.15;;;1.20;;
31442;SDS011;18065;55.876;9.830;2024-01-10T03:55:40;1.40;;;1.15;;
31442;SDS011;18065;55.876;9.830;2024-01-10T03:58:09;4.30;;;1.45;;
31442;SDS011;18065;55.876;9.830;2024-01-10T04:00:38;1.55;;;1.23;;
31442;SDS011;18065;55.876;9.830;2024-01-10T04:03:07;2.17;;;1.15;;
31442;SDS011;18065;55.876;9.830;2024-01-10T04:05:36;1.85;;;1.38;;
31442;SDS011;18065;55.876;9.830;2024-01-10T04:08:05;1.58;;;1.30;;
31442;SDS011;18065;55.876;9.830;2024-01-10T04:10:37;1.52;;;1.42;;
31442;SDS011;18065;55.876;9.830;2024-01-10T04:13:06;3.00;;;1.30;;
31442;SDS011;18065;55.876;9.830;2024-01-10T04:15:35;1.40;;;1.00;;
31442;SDS011;18065;55.876;9.830;2024-01-10T04:18:04;2.15;;;1.33;;
31442;SDS011;18065;55.876;9.830;2024-01-10T04:20:33;2.00;;;1.10;;
31442;SDS011;18065;55.876;9.830;2024-01-10T04:23:02;2.47;;;1.20;;
31442;SDS011;18065;55.876;9.830;2024-01-10T04:25:31;1.55;;;1.13;;
31442;SDS011;18065;55.876;9.830;2024-01-10T04:28:02;1.30;;;1.20;;
31442;SDS011;18065;55.876;9.830;2024-01-10T04:30:32;3.28;;;1.30;;
31442;SDS011;18065;55.876;9.830;2024-01-10T04:33:01;1.38;;;1.02;;
31442;SDS011;18065;55.876;9.830;2024-01-10T04:35:29;1.83;;;1.20;;
31442;SDS011;18065;55.876;9.830;2024-01-10T04:37:58;1.27;;;1.08;;
31442;SDS011;18065;55.876;9.830;2024-01-10T04:40:27;3.33;;;1.13;;
31442;SDS011;18065;55.876;9.830;2024-01-10T04:42:57;2.40;;;1.20;;
31442;SDS011;18065;55.876;9.830;2024-01-10T04:45:28;2.47;;;1.10;;
31442;SDS011;18065;55.876;9.830;2024-01-10T04:47:58;1.30;;;1.20;;
31442;SDS011;18065;55.876;9.830;2024-01-10T04:50:26;3.47;;;1.10;;
31442;SDS011;18065;55.876;9.830;2024-01-10T04:52:55;0.90;;;0.80;;
31442;SDS011;18065;55.876;9.830;2024-01-10T04:55:24;1.63;;;1.08;;
31442;SDS011;18065;55.876;9.830;2024-01-10T04:57:53;2.05;;;1.08;;
31442;SDS011;18065;55.876;9.830;2024-01-10T05:00:22;1.50;;;1.00;;
31442;SDS011;18065;55.876;9.830;2024-01-10T05:02:53;1.25;;;1.15;;
31442;SDS011;18065;55.876;9.830;2024-01-10T05:05:22;1.20;;;1.02;;
31442;SDS011;18065;55.876;9.830;2024-01-10T05:07:51;2.10;;;1.40;;
31442;SDS011;18065;55.876;9.830;2024-01-10T05:10:20;1.85;;;1.27;;
31442;SDS011;18065;55.876;9.830;2024-01-10T05:12:49;2.55;;;1.33;;
31442;SDS011;18065;55.876;9.830;2024-01-10T05:15:18;1.13;;;1.00;;
31442;SDS011;18065;55.876;9.830;2024-01-10T05:17:47;1.10;;;1.00;;
31442;SDS011;18065;55.876;9.830;2024-01-10T05:20:18;1.35;;;1.23;;
31442;SDS011;18065;55.876;9.830;2024-01-10T05:22:48;1.88;;;1.20;;
31442;SDS011;18065;55.876;9.830;2024-01-10T05:25:17;2.50;;;1.08;;
31442;SDS011;18065;55.876;9.830;2024-01-10T05:27:45;1.23;;;0.88;;
31442;SDS011;18065;55.876;9.830;2024-01-10T05:30:14;1.10;;;0.60;;
31442;SDS011;18065;55.876;9.830;2024-01-10T05:32:43;1.50;;;0.95;;
31442;SDS011;18065;55.876;9.830;2024-01-10T05:35:12;1.55;;;1.10;;
31442;SDS011;18065;55.876;9.830;2024-01-10T05:37:44;2.55;;;1.17;;
31442;SDS011;18065;55.876;9.830;2024-01-10T05:40:13;1.48;;;1.20;;
31442;SDS011;18065;55.876;9.830;2024-01-10T05:42:42;1.08;;;0.98;;
31442;SDS011;18065;55.876;9.830;2024-01-10T05:45:11;2.13;;;1.10;;
31442;SDS011;18065;55.876;9.830;2024-01-10T05:47:43;1.15;;;0.93;;
31442;SDS011;18065;55.876;9.830;2024-01-10T05:50:13;1.58;;;1.20;;
31442;SDS011;18065;55.876;9.830;2024-01-10T05:52:45;1.75;;;1.00;;
31442;SDS011;18065;55.876;9.830;2024-01-10T05:55:14;3.80;;;1.00;;
31442;SDS011;18065;55.876;9.830;2024-01-10T05:57:43;2.75;;;1.02;;
31442;SDS011;18065;55.876;9.830;2024-01-10T06:00:12;1.55;;;1.08;;
31442;SDS011;18065;55.876;9.830;2024-01-10T06:02:42;0.98;;;0.85;;
31442;SDS011;18065;55.876;9.830;2024-01-10T06:05:12;3.92;;;1.08;;
31442;SDS011;18065;55.876;9.830;2024-01-10T06:07:41;0.75;;;0.70;;
31442;SDS011;18065;55.876;9.830;2024-01-10T06:10:12;1.20;;;0.88;;
31442;SDS011;18065;55.876;9.830;2024-01-10T06:12:41;1.40;;;1.20;;
31442;SDS011;18065;55.876;9.830;2024-01-10T06:15:10;1.00;;;0.90;;
31442;SDS011;18065;55.876;9.830;2024-01-10T06:17:39;1.30;;;1.00;;
31442;SDS011;18065;55.876;9.830;2024-01-10T06:20:09;0.68;;;0.68;;
31442;SDS011;18065;55.876;9.830;2024-01-10T06:22:39;1.20;;;0.98;;
31442;SDS011;18065;55.876;9.830;2024-01-10T06:25:08;0.95;;;0.75;;
31442;SDS011;18065;55.876;9.830;2024-01-10T06:27:39;1.13;;;0.82;;
31442;SDS011;18065;55.876;9.830;2024-01-10T06:30:09;1.10;;;1.00;;
31442;SDS011;18065;55.876;9.830;2024-01-10T06:32:38;1.55;;;0.90;;
31442;SDS011;18065;55.876;9.830;2024-01-10T06:35:07;1.58;;;0.77;;
31442;SDS011;18065;55.876;9.830;2024-01-10T06:37:37;1.30;;;0.90;;
31442;SDS011;18065;55.876;9.830;2024-01-10T06:40:10;3.00;;;1.00;;
31442;SDS011;18065;55.876;9.830;2024-01-10T06:42:42;1.77;;;1.20;;
31442;SDS011;18065;55.876;9.830;2024-01-10T06:45:11;1.02;;;0.80;;
31442;SDS011;18065;55.876;9.830;2024-01-10T06:47:40;1.60;;;0.95;;
31442;SDS011;18065;55.876;9.830;2024-01-10T06:50:09;2.60;;;1.10;;
31442;SDS011;18065;55.876;9.830;2024-01-10T06:52:38;1.40;;;1.10;;
31442;SDS011;18065;55.876;9.830;2024-01-10T06:55:07;1.63;;;1.00;;
31442;SDS011;18065;55.876;9.830;2024-01-10T06:57:36;2.00;;;1.10;;
31442;SDS011;18065;55.876;9.830;2024-01-10T07:00:08;1.30;;;1.10;;
31442;SDS011;18065;55.876;9.830;2024-01-10T07:02:39;3.17;;;1.15;;
31442;SDS011;18065;55.876;9.830;2024-01-10T07:05:08;1.17;;;0.98;;
31442;SDS011;18065;55.876;9.830;2024-01-10T07:07:37;2.33;;;0.90;;
31442;SDS011;18065;55.876;9.830;2024-01-10T07:10:06;2.50;;;1.30;;
31442;SDS011;18065;55.876;9.830;2024-01-10T07:12:36;1.45;;;0.93;;
31442;SDS011;18065;55.876;9.830;2024-01-10T07:15:05;1.75;;;0.90;;
31442;SDS011;18065;55.876;9.830;2024-01-10T07:17:38;1.98;;;1.17;;
31442;SDS011;18065;55.876;9.830;2024-01-10T07:20:08;1.35;;;0.90;;
31442;SDS011;18065;55.876;9.830;2024-01-10T07:22:38;2.00;;;0.93;;
31442;SDS011;18065;55.876;9.830;2024-01-10T07:25:09;1.73;;;0.93;;
31442;SDS011;18065;55.876;9.830;2024-01-10T07:27:39;1.30;;;1.00;;
31442;SDS011;18065;55.876;9.830;2024-01-10T07:30:11;2.47;;;1.15;;
31442;SDS011;18065;55.876;9.830;2024-01-10T07:32:41;5.35;;;1.20;;
31442;SDS011;18065;55.876;9.830;2024-01-10T07:35:11;2.83;;;1.35;;
31442;SDS011;18065;55.876;9.830;2024-01-10T07:37:41;2.47;;;1.50;;
31442;SDS011;18065;55.876;9.830;2024-01-10T07:40:11;2.28;;;1.50;;
31442;SDS011;18065;55.876;9.830;2024-01-10T07:42:40;3.80;;;1.30;;
31442;SDS011;18065;55.876;9.830;2024-01-10T07:45:11;4.15;;;1.52;;
31442;SDS011;18065;55.876;9.830;2024-01-10T07:47:40;1.65;;;1.05;;
31442;SDS011;18065;55.876;9.830;2024-01-10T07:50:10;4.75;;;1.30;;
31442;SDS011;18065;55.876;9.830;2024-01-10T07:52:39;3.25;;;1.40;;
31442;SDS011;18065;55.876;9.830;2024-01-10T07:55:09;3.13;;;1.20;;
31442;SDS011;18065;55.876;9.830;2024-01-10T07:57:38;3.17;;;1.45;;
31442;SDS011;18065;55.876;9.830;2024-01-10T08:00:08;3.65;;;1.50;;
31442;SDS011;18065;55.876;9.830;2024-01-10T08:02:40;2.15;;;1.20;;
31442;SDS011;18065;55.876;9.830;2024-01-10T08:05:09;3.90;;;1.20;;
31442;SDS011;18065;55.876;9.830;2024-01-10T08:07:41;2.63;;;1.27;;
31442;SDS011;18065;55.876;9.830;2024-01-10T08:10:10;3.40;;;1.15;;
31442;SDS011;18065;55.876;9.830;2024-01-10T08:12:40;3.50;;;1.42;;
31442;SDS011;18065;55.876;9.830;2024-01-10T08:15:12;2.60;;;1.10;;
31442;SDS011;18065;55.876;9.830;2024-01-10T08:17:42;2.00;;;1.30;;
31442;SDS011;18065;55.876;9.830;2024-01-10T08:20:11;2.65;;;1.40;;
31442;SDS011;18065;55.876;9.830;2024-01-10T08:22:44;3.85;;;1.48;;
31442;SDS011;18065;55.876;9.830;2024-01-10T08:25:13;3.28;;;1.58;;
31442;SDS011;18065;55.876;9.830;2024-01-10T08:27:44;1.88;;;1.35;;
31442;SDS011;18065;55.876;9.830;2024-01-10T08:30:16;3.63;;;1.70;;
31442;SDS011;18065;55.876;9.830;2024-01-10T08:32:46;1.75;;;1.50;;
31442;SDS011;18065;55.876;9.830;2024-01-10T08:35:15;4.47;;;1.52;;
31442;SDS011;18065;55.876;9.830;2024-01-10T08:37:44;2.28;;;1.17;;
31442;SDS011;18065;55.876;9.830;2024-01-10T08:40:13;3.83;;;1.30;;
31442;SDS011;18065;55.876;9.830;2024-01-10T08:42:42;3.08;;;1.30;;
31442;SDS011;18065;55.876;9.830;2024-01-10T08:45:11;4.47;;;1.33;;
31442;SDS011;18065;55.876;9.830;2024-01-10T08:47:43;3.60;;;1.15;;
31442;SDS011;18065;55.876;9.830;2024-01-10T08:50:12;3.97;;;1.30;;
31442;SDS011;18065;55.876;9.830;2024-01-10T08:52:41;1.88;;;1.25;;
31442;SDS011;18065;55.876;9.830;2024-01-10T08:55:10;3.67;;;1.40;;
31442;SDS011;18065;55.876;9.830;2024-01-10T08:57:39;2.78;;;1.25;;
31442;SDS011;18065;55.876;9.830;2024-01-10T09:00:08;3.42;;;1.40;;
31442;SDS011;18065;55.876;9.830;2024-01-10T09:02:39;2.60;;;1.30;;
31442;SDS011;18065;55.876;9.830;2024-01-10T09:05:11;4.63;;;1.50;;
31442;SDS011;18065;55.876;9.830;2024-01-10T09:07:40;5.13;;;1.52;;
31442;SDS011;18065;55.876;9.830;2024-01-10T09:10:09;2.47;;;1.27;;
31442;SDS011;18065;55.876;9.830;2024-01-10T09:12:38;1.75;;;1.13;;
31442;SDS011;18065;55.876;9.830;2024-01-10T09:15:11;2.75;;;1.23;;
31442;SDS011;18065;55.876;9.830;2024-01-10T09:17:43;2.90;;;1.40;;
31442;SDS011;18065;55.876;9.830;2024-01-10T09:20:13;7.67;;;1.27;;
31442;SDS011;18065;55.876;9.830;2024-01-10T09:22:43;4.40;;;1.23;;
31442;SDS011;18065;55.876;9.830;2024-01-10T09:25:12;2.75;;;1.20;;
31442;SDS011;18065;55.876;9.830;2024-01-10T09:27:41;4.03;;;1.40;;
31442;SDS011;18065;55.876;9.830;2024-01-10T09:30:11;19.00;;;1.70;;
31442;SDS011;18065;55.876;9.830;2024-01-10T09:32:44;3.90;;;1.38;;
31442;SDS011;18065;55.876;9.830;2024-01-10T09:35:14;2.28;;;1.27;;
31442;SDS011;18065;55.876;9.830;2024-01-10T09:37:43;3.90;;;1.20;;
31442;SDS011;18065;55.876;9.830;2024-01-10T09:40:14;3.42;;;1.40;;
31442;SDS011;18065;55.876;9.830;2024-01-10T09:45:16;3.75;;;1.40;;
31442;SDS011;18065;55.876;9.830;2024-01-10T09:47:51;3.75;;;1.20;;
31442;SDS011;18065;55.876;9.830;2024-01-10T09:50:23;2.40;;;1.10;;
31442;SDS011;18065;55.876;9.830;2024-01-10T09:52:53;2.72;;;1.00;;
31442;SDS011;18065;55.876;9.830;2024-01-10T09:55:34;2.97;;;1.17;;
31442;SDS011;18065;55.876;9.830;2024-01-10T09:58:04;1.85;;;1.15;;
31442;SDS011;18065;55.876;9.830;2024-01-10T10:00:34;4.25;;;1.23;;
31442;SDS011;18065;55.876;9.830;2024-01-10T10:03:07;1.95;;;1.08;;
31442;SDS011;18065;55.876;9.830;2024-01-10T10:05:37;2.45;;;1.20;;
31442;SDS011;18065;55.876;9.830;2024-01-10T10:08:07;3.92;;;1.60;;
31442;SDS011;18065;55.876;9.830;2024-01-10T10:10:39;5.43;;;1.15;;
31442;SDS011;18065;55.876;9.830;2024-01-10T10:13:11;2.53;;;1.23;;
31442;SDS011;18065;55.876;9.830;2024-01-10T10:15:59;2.50;;;0.95;;
31442;SDS011;18065;55.876;9.830;2024-01-10T10:18:31;4.20;;;1.10;;
31442;SDS011;18065;55.876;9.830;2024-01-10T10:21:06;1.30;;;1.02;;
31442;SDS011;18065;55.876;9.830;2024-01-10T10:23:37;3.25;;;1.40;;
31442;SDS011;18065;55.876;9.830;2024-01-10T10:26:11;2.17;;;1.27;;
31442;SDS011;18065;55.876;9.830;2024-01-10T10:28:44;3.03;;;0.90;;
31442;SDS011;18065;55.876;9.830;2024-01-10T10:31:13;2.53;;;1.10;;
31442;SDS011;18065;55.876;9.830;2024-01-10T10:33:47;3.30;;;1.10;;
31442;SDS011;18065;55.876;9.830;2024-01-10T10:36:17;2.42;;;0.98;;
31442;SDS011;18065;55.876;9.830;2024-01-10T10:38:47;2.53;;;1.10;;
31442;SDS011;18065;55.876;9.830;2024-01-10T10:41:16;4.05;;;1.50;;
31442;SDS011;18065;55.876;9.830;2024-01-10T10:43:47;2.97;;;1.20;;
31442;SDS011;18065;55.876;9.830;2024-01-10T10:46:18;4.45;;;1.00;;
31442;SDS011;18065;55.876;9.830;2024-01-10T10:48:51;4.35;;;1.23;;
31442;SDS011;18065;55.876;9.830;2024-01-10T10:51:23;3.70;;;1.00;;
31442;SDS011;18065;55.876;9.830;2024-01-10T10:54:02;2.22;;;1.17;;
31442;SDS011;18065;55.876;9.830;2024-01-10T10:56:32;1.20;;;0.93;;
31442;SDS011;18065;55.876;9.830;2024-01-10T10:59:02;4.18;;;1.27;;
31442;SDS011;18065;55.876;9.830;2024-01-10T11:01:33;4.80;;;1.38;;
31442;SDS011;18065;55.876;9.830;2024-01-10T11:04:05;2.13;;;1.10;;
31442;SDS011;18065;55.876;9.830;2024-01-10T11:06:34;6.43;;;1.10;;
31442;SDS011;18065;55.876;9.830;2024-01-10T11:09:04;2.40;;;0.95;;
31442;SDS011;18065;55.876;9.830;2024-01-10T11:11:39;3.90;;;1.30;;
31442;SDS011;18065;55.876;9.830;2024-01-10T11:14:23;4.95;;;1.10;;
31442;SDS011;18065;55.876;9.830;2024-01-10T11:17:08;3.22;;;1.40;;
31442;SDS011;18065;55.876;9.830;2024-01-10T11:20:05;3.78;;;1.10;;
31442;SDS011;18065;55.876;9.830;2024-01-10T11:22:51;3.70;;;1.17;;
31442;SDS011;18065;55.876;9.830;2024-01-10T11:25:29;4.63;;;1.08;;
31442;SDS011;18065;55.876;9.830;2024-01-10T11:28:02;9.35;;;1.50;;
31442;SDS011;18065;55.876;9.830;2024-01-10T11:30:35;3.22;;;1.13;;
31442;SDS011;18065;55.876;9.830;2024-01-10T11:38:53;2.88;;;1.30;;
31442;SDS011;18065;55.876;9.830;2024-01-10T11:41:23;3.22;;;1.02;;
31442;SDS011;18065;55.876;9.830;2024-01-10T11:46:52;2.47;;;0.80;;
31442;SDS011;18065;55.876;9.830;2024-01-10T11:49:22;4.55;;;1.02;;
31442;SDS011;18065;55.876;9.830;2024-01-10T11:51:56;2.40;;;1.15;;
31442;SDS011;18065;55.876;9.830;2024-01-10T11:57:14;2.08;;;1.00;;
31442;SDS011;18065;55.876;9.830;2024-01-10T11:59:50;1.35;;;0.85;;
31442;SDS011;18065;55.876;9.830;2024-01-10T12:02:20;2.88;;;1.00;;
31442;SDS011;18065;55.876;9.830;2024-01-10T12:04:50;3.28;;;1.00;;
31442;SDS011;18065;55.876;9.830;2024-01-10T12:07:22;4.00;;;1.10;;
31442;SDS011;18065;55.876;9.830;2024-01-10T12:09:52;2.10;;;1.00;;
31442;SDS011;18065;55.876;9.830;2024-01-10T12:12:21;2.25;;;1.02;;
31442;SDS011;18065;55.876;9.830;2024-01-10T12:14:52;1.67;;;0.98;;
31442;SDS011;18065;55.876;9.830;2024-01-10T12:17:22;1.83;;;0.88;;
31442;SDS011;18065;55.876;9.830;2024-01-10T12:19:56;4.13;;;1.00;;
31442;SDS011;18065;55.876;9.830;2024-01-10T12:22:27;1.13;;;1.00;;
31442;SDS011;18065;55.876;9.830;2024-01-10T12:24:56;5.63;;;1.00;;
31442;SDS011;18065;55.876;9.830;2024-01-10T12:27:32;1.90;;;1.02;;
31442;SDS011;18065;55.876;9.830;2024-01-10T12:30:01;1.40;;;1.00;;
31442;SDS011;18065;55.876;9.830;2024-01-10T12:32:30;1.23;;;0.82;;
31442;SDS011;18065;55.876;9.830;2024-01-10T12:35:00;2.35;;;1.00;;
31442;SDS011;18065;55.876;9.830;2024-01-10T12:37:32;3.03;;;1.00;;
31442;SDS011;18065;55.876;9.830;2024-01-10T12:40:02;5.32;;;1.00;;
31442;SDS011;18065;55.876;9.830;2024-01-10T12:42:33;2.20;;;0.93;;
31442;SDS011;18065;55.876;9.830;2024-01-10T12:45:02;1.45;;;0.93;;
31442;SDS011;18065;55.876;9.830;2024-01-10T12:47:31;2.40;;;0.80;;
31442;SDS011;18065;55.876;9.830;2024-01-10T12:50:05;2.20;;;1.17;;
31442;SDS011;18065;55.876;9.830;2024-01-10T12:52:38;1.90;;;0.90;;
31442;SDS011;18065;55.876;9.830;2024-01-10T12:57:38;2.08;;;0.93;;
31442;SDS011;18065;55.876;9.830;2024-01-10T13:00:07;1.38;;;0.90;;
31442;SDS011;18065;55.876;9.830;2024-01-10T13:02:39;1.63;;;0.88;;
31442;SDS011;18065;55.876;9.830;2024-01-10T13:05:08;4.35;;;0.90;;
31442;SDS011;18065;55.876;9.830;2024-01-10T13:07:39;2.85;;;0.95;;
31442;SDS011;18065;55.876;9.830;2024-01-10T13:10:08;2.72;;;0.77;;
31442;SDS011;18065;55.876;9.830;2024-01-10T13:12:37;0.93;;;0.63;;
31442;SDS011;18065;55.876;9.830;2024-01-10T13:15:07;2.03;;;0.80;;
31442;SDS011;18065;55.876;9.830;2024-01-10T13:17:37;1.17;;;0.73;;
31442;SDS011;18065;55.876;9.830;2024-01-10T13:20:06;2.67;;;0.90;;
31442;SDS011;18065;55.876;9.830;2024-01-10T13:22:36;2.15;;;0.90;;
31442;SDS011;18065;55.876;9.830;2024-01-10T13:25:08;1.70;;;0.70;;
31442;SDS011;18065;55.876;9.830;2024-01-10T13:27:38;1.38;;;0.65;;
31442;SDS011;18065;55.876;9.830;2024-01-10T13:30:07;0.82;;;0.60;;
31442;SDS011;18065;55.876;9.830;2024-01-10T13:32:37;1.30;;;0.93;;
31442;SDS011;18065;55.876;9.830;2024-01-10T13:35:06;1.10;;;0.80;;
31442;SDS011;18065;55.876;9.830;2024-01-10T13:37:36;1.60;;;0.60;;
31442;SDS011;18065;55.876;9.830;2024-01-10T13:40:09;3.15;;;0.88;;
31442;SDS011;18065;55.876;9.830;2024-01-10T13:42:38;3.28;;;0.90;;
31442;SDS011;18065;55.876;9.830;2024-01-10T13:45:08;1.33;;;0.68;;
31442;SDS011;18065;55.876;9.830;2024-01-10T13:47:39;1.85;;;0.95;;
31442;SDS011;18065;55.876;9.830;2024-01-10T13:50:08;2.53;;;0.90;;
31442;SDS011;18065;55.876;9.830;2024-01-10T13:52:37;3.00;;;0.90;;
31442;SDS011;18065;55.876;9.830;2024-01-10T13:55:09;1.40;;;0.70;;
31442;SDS011;18065;55.876;9.830;2024-01-10T13:57:38;1.38;;;0.80;;
31442;SDS011;18065;55.876;9.830;2024-01-10T14:00:08;3.15;;;0.80;;
31442;SDS011;18065;55.876;9.830;2024-01-10T14:02:40;2.13;;;0.80;;
31442;SDS011;18065;55.876;9.830;2024-01-10T14:05:09;1.10;;;0.65;;
31442;SDS011;18065;55.876;9.830;2024-01-10T14:07:38;2.67;;;0.70;;
31442;SDS011;18065;55.876;9.830;2024-01-10T14:10:12;1.92;;;0.80;;
31442;SDS011;18065;55.876;9.830;2024-01-10T14:12:41;0.82;;;0.60;;
31442;SDS011;18065;55.876;9.830;2024-01-10T14:15:10;2.17;;;0.95;;
31442;SDS011;18065;55.876;9.830;2024-01-10T14:17:40;1.25;;;0.73;;
31442;SDS011;18065;55.876;9.830;2024-01-10T14:20:09;1.05;;;0.70;;
31442;SDS011;18065;55.876;9.830;2024-01-10T14:22:39;1.95;;;0.73;;
31442;SDS011;18065;55.876;9.830;2024-01-10T14:25:12;2.45;;;1.15;;
31442;SDS011;18065;55.876;9.830;2024-01-10T14:27:41;3.83;;;0.88;;
31442;SDS011;18065;55.876;9.830;2024-01-10T14:30:10;3.08;;;0.70;;
31442;SDS011;18065;55.876;9.830;2024-01-10T14:32:40;2.05;;;0.90;;
31442;SDS011;18065;55.876;9.830;2024-01-10T14:35:12;1.83;;;0.60;;
31442;SDS011;18065;55.876;9.830;2024-01-10T14:37:41;2.58;;;0.75;;
31442;SDS011;18065;55.876;9.830;2024-01-10T14:40:13;0.93;;;0.70;;
31442;SDS011;18065;55.876;9.830;2024-01-10T14:42:42;1.92;;;0.57;;
31442;SDS011;18065;55.876;9.830;2024-01-10T14:45:11;1.10;;;0.70;;
31442;SDS011;18065;55.876;9.830;2024-01-10T14:47:40;3.70;;;0.70;;
31442;SDS011;18065;55.876;9.830;2024-01-10T14:50:09;1.60;;;0.60;;
31442;SDS011;18065;55.876;9.830;2024-01-10T14:52:38;2.15;;;0.98;;
31442;SDS011;18065;55.876;9.830;2024-01-10T14:55:08;2.08;;;0.60;;
31442;SDS011;18065;55.876;9.830;2024-01-10T14:57:39;1.42;;;0.90;;
31442;SDS011;18065;55.876;9.830;2024-01-10T15:00:08;2.42;;;0.70;;
31442;SDS011;18065;55.876;9.830;2024-01-10T15:02:38;1.70;;;0.77;;
31442;SDS011;18065;55.876;9.830;2024-01-10T15:05:07;2.28;;;0.70;;
31442;SDS011;18065;55.876;9.830;2024-01-10T15:07:36;1.98;;;0.70;;
31442;SDS011;18065;55.876;9.830;2024-01-10T15:10:05;2.67;;;0.80;;
31442;SDS011;18065;55.876;9.830;2024-01-10T15:12:34;1.92;;;0.70;;
31442;SDS011;18065;55.876;9.830;2024-01-10T15:15:06;2.03;;;0.75;;
31442;SDS011;18065;55.876;9.830;2024-01-10T15:17:36;0.93;;;0.70;;
31442;SDS011;18065;55.876;9.830;2024-01-10T15:20:05;2.05;;;0.70;;
31442;SDS011;18065;55.876;9.830;2024-01-10T15:22:35;3.53;;;0.70;;